CYBW

Calgary / Springbank Airport

Calgary, Alberta, Canada
METAR CYBW 170300Z AUTO 33004KT 9SM CLR 07/M05 A3026 RMK SLP287
Observed Flight Rules
Oct-17 @ 03:00 UTC (15 minutes ago) Visual Flight Rules
Wind Visibility Clouds
330° at 4 knots 9 miles
  • Clear skies
Temperatures Readings
Current 7°C / 45°F
Dewpoint -5°C / 23°F
Humidity 42%
Altimeter 30.26" Hg
Pressure 1028.7 hPa
Elevation 1200
METAR CYBW 170300Z AUTO 33004KT 9SM CLR 07/M05 A3026 RMK SLP287
Observed Flight Rules
Oct-17 @ 03:00 UTC
(15 minutes ago)
VFR
Wind Visibility
330° at 4 knots 9 miles
Clouds
  • Clear skies
Temperature Dewpoint
7°C / 45°F -5°C / 23°F
Humidity Altimeter Pressure
42% 30.26" Hg 1028.7 hPa